sensor_id;sensor_type;location;lat;lon;timestamp;pressure;altitude;pressure_sealevel;temperature;humidity
56042;BME280;48756;41.374;2.066;2022-08-25T00:00:16;100722.84;;;27.63;56.62
56042;BME280;48756;41.374;2.066;2022-08-25T00:02:42;100728.63;;;27.80;56.37
56042;BME280;48756;41.374;2.066;2022-08-25T00:05:08;100723.78;;;27.73;55.61
56042;BME280;48756;41.374;2.066;2022-08-25T00:07:34;100691.91;;;27.59;55.89
56042;BME280;48756;41.374;2.066;2022-08-25T00:10:00;100677.53;;;27.60;56.17
56042;BME280;48756;41.374;2.066;2022-08-25T00:12:26;100672.53;;;27.78;55.83
56042;BME280;48756;41.374;2.066;2022-08-25T00:14:51;100676.31;;;27.87;55.91
56042;BME280;48756;41.374;2.066;2022-08-25T00:17:17;100679.72;;;27.77;56.70
56042;BME280;48756;41.374;2.066;2022-08-25T00:19:43;100641.19;;;27.69;57.95
56042;BME280;48756;41.374;2.066;2022-08-25T00:22:09;100625.72;;;27.72;58.32
56042;BME280;48756;41.374;2.066;2022-08-25T00:24:35;100641.06;;;27.70;58.27
56042;BME280;48756;41.374;2.066;2022-08-25T00:27:01;100675.38;;;27.54;58.45
56042;BME280;48756;41.374;2.066;2022-08-25T00:29:28;100699.09;;;27.48;58.43
56042;BME280;48756;41.374;2.066;2022-08-25T00:31:54;100686.47;;;27.27;59.04
56042;BME280;48756;41.374;2.066;2022-08-25T00:34:27;100682.91;;;27.38;59.51
56042;BME280;48756;41.374;2.066;2022-08-25T00:36:54;100679.78;;;27.33;58.50
56042;BME280;48756;41.374;2.066;2022-08-25T00:39:21;100647.06;;;27.29;58.78
56042;BME280;48756;41.374;2.066;2022-08-25T00:41:48;100627.72;;;27.37;57.70
56042;BME280;48756;41.374;2.066;2022-08-25T00:44:15;100622.03;;;27.08;59.26
56042;BME280;48756;41.374;2.066;2022-08-25T00:46:49;100641.09;;;26.92;60.33
56042;BME280;48756;41.374;2.066;2022-08-25T00:49:47;100653.41;;;26.95;59.08
56042;BME280;48756;41.374;2.066;2022-08-25T00:52:23;100683.69;;;27.29;59.68
56042;BME280;48756;41.374;2.066;2022-08-25T00:55:00;100691.47;;;27.09;60.34
56042;BME280;48756;41.374;2.066;2022-08-25T00:57:33;100682.34;;;27.12;60.30
56042;BME280;48756;41.374;2.066;2022-08-25T01:00:09;100678.78;;;27.34;59.52
56042;BME280;48756;41.374;2.066;2022-08-25T01:02:37;100669.44;;;27.39;58.68
56042;BME280;48756;41.374;2.066;2022-08-25T01:05:03;100677.56;;;27.49;59.19
56042;BME280;48756;41.374;2.066;2022-08-25T01:07:28;100675.66;;;27.40;58.55
56042;BME280;48756;41.374;2.066;2022-08-25T01:09:54;100663.63;;;27.23;60.01
56042;BME280;48756;41.374;2.066;2022-08-25T01:12:20;100631.03;;;27.18;61.27
56042;BME280;48756;41.374;2.066;2022-08-25T01:14:47;100643.53;;;27.40;60.15
56042;BME280;48756;41.374;2.066;2022-08-25T01:17:14;100656.34;;;27.03;60.82
56042;BME280;48756;41.374;2.066;2022-08-25T01:19:40;100661.44;;;27.17;61.07
56042;BME280;48756;41.374;2.066;2022-08-25T01:22:07;100680.03;;;27.19;59.45
56042;BME280;48756;41.374;2.066;2022-08-25T01:24:56;100670.53;;;27.14;59.85
56042;BME280;48756;41.374;2.066;2022-08-25T01:27:23;100664.69;;;27.32;58.86
56042;BME280;48756;41.374;2.066;2022-08-25T01:29:49;100682.06;;;27.37;59.24
56042;BME280;48756;41.374;2.066;2022-08-25T01:32:15;100678.91;;;27.32;58.89
56042;BME280;48756;41.374;2.066;2022-08-25T01:34:43;100668.09;;;27.34;59.17
56042;BME280;48756;41.374;2.066;2022-08-25T01:37:11;100670.28;;;27.29;58.79
56042;BME280;48756;41.374;2.066;2022-08-25T01:39:37;100664.13;;;27.17;59.30
56042;BME280;48756;41.374;2.066;2022-08-25T01:44:43;100678.31;;;27.29;59.97
56042;BME280;48756;41.374;2.066;2022-08-25T01:47:11;100680.28;;;27.27;59.85
56042;BME280;48756;41.374;2.066;2022-08-25T01:49:37;100680.03;;;27.30;59.76
56042;BME280;48756;41.374;2.066;2022-08-25T01:52:10;100703.84;;;27.33;58.67
56042;BME280;48756;41.374;2.066;2022-08-25T01:54:36;100697.91;;;27.29;59.33
56042;BME280;48756;41.374;2.066;2022-08-25T01:57:02;100695.34;;;27.39;59.41
56042;BME280;48756;41.374;2.066;2022-08-25T01:59:28;100698.75;;;27.30;61.09
56042;BME280;48756;41.374;2.066;2022-08-25T02:01:54;100686.34;;;27.29;60.85
56042;BME280;48756;41.374;2.066;2022-08-25T02:04:19;100687.94;;;27.20;61.70
56042;BME280;48756;41.374;2.066;2022-08-25T02:06:46;100694.13;;;27.09;59.78
56042;BME280;48756;41.374;2.066;2022-08-25T02:09:14;100703.56;;;26.91;60.21
56042;BME280;48756;41.374;2.066;2022-08-25T02:11:42;100694.22;;;26.97;60.59
56042;BME280;48756;41.374;2.066;2022-08-25T02:14:10;100691.94;;;27.03;60.58
56042;BME280;48756;41.374;2.066;2022-08-25T02:16:38;100687.81;;;27.10;60.32
56042;BME280;48756;41.374;2.066;2022-08-25T02:19:06;100684.06;;;27.02;60.84
56042;BME280;48756;41.374;2.066;2022-08-25T02:21:33;100690.84;;;26.95;61.26
56042;BME280;48756;41.374;2.066;2022-08-25T02:24:00;100700.53;;;26.73;61.42
56042;BME280;48756;41.374;2.066;2022-08-25T02:26:26;100691.63;;;26.62;61.38
56042;BME280;48756;41.374;2.066;2022-08-25T02:28:52;100701.09;;;26.54;62.06
56042;BME280;48756;41.374;2.066;2022-08-25T02:31:20;100702.19;;;26.28;62.22
56042;BME280;48756;41.374;2.066;2022-08-25T02:33:46;100698.03;;;26.24;61.61
56042;BME280;48756;41.374;2.066;2022-08-25T02:36:12;100697.59;;;26.30;61.11
56042;BME280;48756;41.374;2.066;2022-08-25T02:38:39;100694.59;;;26.35;61.44
56042;BME280;48756;41.374;2.066;2022-08-25T02:41:19;100697.81;;;26.51;60.74
56042;BME280;48756;41.374;2.066;2022-08-25T02:43:47;100686.25;;;26.50;60.52
56042;BME280;48756;41.374;2.066;2022-08-25T02:46:15;100677.09;;;26.42;60.52
56042;BME280;48756;41.374;2.066;2022-08-25T02:48:41;100680.03;;;26.39;61.25
56042;BME280;48756;41.374;2.066;2022-08-25T02:51:08;100675.34;;;26.30;60.65
56042;BME280;48756;41.374;2.066;2022-08-25T02:53:35;100679.28;;;26.37;60.74
56042;BME280;48756;41.374;2.066;2022-08-25T02:56:04;100673.38;;;26.20;60.90
56042;BME280;48756;41.374;2.066;2022-08-25T02:58:31;100670.19;;;26.15;60.32
56042;BME280;48756;41.374;2.066;2022-08-25T03:00:57;100664.13;;;26.13;60.29
56042;BME280;48756;41.374;2.066;2022-08-25T03:03:23;100664.13;;;26.13;59.75
56042;BME280;48756;41.374;2.066;2022-08-25T03:05:48;100668.81;;;26.34;59.34
56042;BME280;48756;41.374;2.066;2022-08-25T03:08:14;100675.06;;;26.21;59.51
56042;BME280;48756;41.374;2.066;2022-08-25T03:10:40;100666.13;;;26.34;59.09
56042;BME280;48756;41.374;2.066;2022-08-25T03:13:05;100669.16;;;26.29;60.21
56042;BME280;48756;41.374;2.066;2022-08-25T03:15:31;100672.38;;;26.34;60.19
56042;BME280;48756;41.374;2.066;2022-08-25T03:17:57;100660.13;;;26.19;61.47
56042;BME280;48756;41.374;2.066;2022-08-25T03:20:24;100655.28;;;26.24;61.46
56042;BME280;48756;41.374;2.066;2022-08-25T03:22:50;100655.13;;;26.38;61.97
56042;BME280;48756;41.374;2.066;2022-08-25T03:25:16;100658.75;;;26.37;63.22
56042;BME280;48756;41.374;2.066;2022-08-25T03:28:02;100661.47;;;26.48;64.65
56042;BME280;48756;41.374;2.066;2022-08-25T03:30:28;100657.47;;;26.65;63.72
56042;BME280;48756;41.374;2.066;2022-08-25T03:32:54;100665.25;;;26.57;64.63
56042;BME280;48756;41.374;2.066;2022-08-25T03:35:21;100672.53;;;26.55;66.20
56042;BME280;48756;41.374;2.066;2022-08-25T03:37:47;100678.13;;;26.52;66.45
56042;BME280;48756;41.374;2.066;2022-08-25T03:40:15;100668.28;;;26.52;67.06
56042;BME280;48756;41.374;2.066;2022-08-25T03:42:43;100677.03;;;26.54;67.33
56042;BME280;48756;41.374;2.066;2022-08-25T03:45:10;100670.59;;;26.57;68.35
56042;BME280;48756;41.374;2.066;2022-08-25T03:47:37;100669.53;;;26.71;68.98
56042;BME280;48756;41.374;2.066;2022-08-25T03:50:06;100670.16;;;26.74;68.99
56042;BME280;48756;41.374;2.066;2022-08-25T03:52:33;100667.31;;;26.53;70.04
56042;BME280;48756;41.374;2.066;2022-08-25T03:54:59;100664.16;;;26.60;70.29
56042;BME280;48756;41.374;2.066;2022-08-25T03:57:25;100676.06;;;26.55;70.69
56042;BME280;48756;41.374;2.066;2022-08-25T03:59:51;100676.31;;;26.64;71.36
56042;BME280;48756;41.374;2.066;2022-08-25T04:02:17;100692.50;;;26.73;70.92
56042;BME280;48756;41.374;2.066;2022-08-25T04:04:43;100693.44;;;26.61;71.82
56042;BME280;48756;41.374;2.066;2022-08-25T04:07:08;100698.41;;;26.54;71.89
56042;BME280;48756;41.374;2.066;2022-08-25T04:09:34;100701.34;;;26.63;72.32
56042;BME280;48756;41.374;2.066;2022-08-25T04:12:00;100700.84;;;26.58;73.16
56042;BME280;48756;41.374;2.066;2022-08-25T04:14:26;100694.16;;;26.52;73.06
56042;BME280;48756;41.374;2.066;2022-08-25T04:16:51;100696.22;;;26.60;73.21
56042;BME280;48756;41.374;2.066;2022-08-25T04:19:17;100699.41;;;26.65;73.65
56042;BME280;48756;41.374;2.066;2022-08-25T04:21:42;100706.91;;;26.60;73.66
56042;BME280;48756;41.374;2.066;2022-08-25T04:24:10;100702.91;;;26.65;74.16
56042;BME280;48756;41.374;2.066;2022-08-25T04:26:46;100707.53;;;26.52;74.89
56042;BME280;48756;41.374;2.066;2022-08-25T04:29:15;100711.06;;;26.64;74.45
56042;BME280;48756;41.374;2.066;2022-08-25T04:31:43;100718.72;;;26.68;74.47
56042;BME280;48756;41.374;2.066;2022-08-25T04:34:11;100721.63;;;26.65;76.41
56042;BME280;48756;41.374;2.066;2022-08-25T04:36:37;100725.13;;;26.54;76.78
56042;BME280;48756;41.374;2.066;2022-08-25T04:39:04;100730.84;;;26.50;77.45
56042;BME280;48756;41.374;2.066;2022-08-25T04:41:30;100730.72;;;26.51;77.31
56042;BME280;48756;41.374;2.066;2022-08-25T04:43:58;100744.63;;;26.44;77.98
56042;BME280;48756;41.374;2.066;2022-08-25T04:46:27;100748.28;;;26.43;78.79
56042;BME280;48756;41.374;2.066;2022-08-25T04:48:55;100756.19;;;26.44;78.08
56042;BME280;48756;41.374;2.066;2022-08-25T04:51:24;100748.63;;;26.14;78.80
56042;BME280;48756;41.374;2.066;2022-08-25T04:53:51;100765.16;;;26.19;77.08
56042;BME280;48756;41.374;2.066;2022-08-25T04:56:18;100758.22;;;25.93;76.30
56042;BME280;48756;41.374;2.066;2022-08-25T04:58:45;100754.53;;;25.83;77.21
56042;BME280;48756;41.374;2.066;2022-08-25T05:01:24;100758.78;;;25.85;77.30
56042;BME280;48756;41.374;2.066;2022-08-25T05:03:56;100758.81;;;25.73;76.51
56042;BME280;48756;41.374;2.066;2022-08-25T05:06:22;100761.78;;;25.81;75.89
56042;BME280;48756;41.374;2.066;2022-08-25T05:08:48;100771.16;;;25.86;74.88
56042;BME280;48756;41.374;2.066;2022-08-25T05:11:14;100759.63;;;25.86;75.20
56042;BME280;48756;41.374;2.066;2022-08-25T05:13:46;100767.13;;;25.81;73.56
56042;BME280;48756;41.374;2.066;2022-08-25T05:16:12;100762.00;;;26.02;72.54
56042;BME280;48756;41.374;2.066;2022-08-25T05:18:39;100771.94;;;26.00;71.45
56042;BME280;48756;41.374;2.066;2022-08-25T05:21:08;100762.78;;;26.04;71.60
56042;BME280;48756;41.374;2.066;2022-08-25T05:23:35;100770.19;;;25.87;70.91
56042;BME280;48756;41.374;2.066;2022-08-25T05:26:04;100769.28;;;26.00;70.75
56042;BME280;48756;41.374;2.066;2022-08-25T05:28:30;100772.97;;;25.86;71.00
56042;BME280;48756;41.374;2.066;2022-08-25T05:30:58;100773.88;;;25.98;71.00
56042;BME280;48756;41.374;2.066;2022-08-25T05:33:25;100772.59;;;26.03;70.73
56042;BME280;48756;41.374;2.066;2022-08-25T05:35:50;100777.59;;;26.08;70.28
56042;BME280;48756;41.374;2.066;2022-08-25T05:38:16;100779.81;;;26.14;69.88
56042;BME280;48756;41.374;2.066;2022-08-25T05:40:42;100773.22;;;26.07;70.54
56042;BME280;48756;41.374;2.066;2022-08-25T05:43:08;100782.25;;;26.17;70.88
56042;BME280;48756;41.374;2.066;2022-08-25T05:45:34;100779.81;;;26.14;71.00
56042;BME280;48756;41.374;2.066;2022-08-25T05:48:01;100774.94;;;26.08;70.31
56042;BME280;48756;41.374;2.066;2022-08-25T05:50:27;100784.41;;;26.12;71.17
56042;BME280;48756;41.374;2.066;2022-08-25T05:52:53;100787.13;;;26.23;69.34
56042;BME280;48756;41.374;2.066;2022-08-25T05:55:19;100786.16;;;26.24;69.29
56042;BME280;48756;41.374;2.066;2022-08-25T05:57:45;100789.06;;;26.21;69.18
56042;BME280;48756;41.374;2.066;2022-08-25T06:00:11;100795.63;;;26.41;68.07
56042;BME280;48756;41.374;2.066;2022-08-25T06:02:38;100807.00;;;26.32;68.16
56042;BME280;48756;41.374;2.066;2022-08-25T06:05:14;100815.75;;;26.34;68.10
56042;BME280;48756;41.374;2.066;2022-08-25T06:07:41;100818.94;;;26.39;67.79
56042;BME280;48756;41.374;2.066;2022-08-25T06:10:08;100821.75;;;26.37;67.82
56042;BME280;48756;41.374;2.066;2022-08-25T06:12:36;100820.00;;;26.49;67.36
56042;BME280;48756;41.374;2.066;2022-08-25T06:15:03;100819.19;;;26.36;66.51
56042;BME280;48756;41.374;2.066;2022-08-25T06:17:29;100819.44;;;26.44;65.56
56042;BME280;48756;41.374;2.066;2022-08-25T06:19:55;100823.44;;;26.62;65.25
56042;BME280;48756;41.374;2.066;2022-08-25T06:22:21;100828.22;;;26.46;66.24
56042;BME280;48756;41.374;2.066;2022-08-25T06:24:49;100833.19;;;26.27;67.20
56042;BME280;48756;41.374;2.066;2022-08-25T06:27:15;100835.41;;;26.33;67.40
56042;BME280;48756;41.374;2.066;2022-08-25T06:29:41;100837.41;;;26.42;66.68
56042;BME280;48756;41.374;2.066;2022-08-25T06:32:06;100838.38;;;26.41;67.40
56042;BME280;48756;41.374;2.066;2022-08-25T06:34:33;100841.13;;;26.52;67.21
56042;BME280;48756;41.374;2.066;2022-08-25T06:36:58;100835.59;;;26.66;68.06
56042;BME280;48756;41.374;2.066;2022-08-25T06:39:30;100836.06;;;26.60;66.65
56042;BME280;48756;41.374;2.066;2022-08-25T06:41:56;100834.97;;;26.63;65.77
56042;BME280;48756;41.374;2.066;2022-08-25T06:44:23;100832.53;;;26.60;63.75
56042;BME280;48756;41.374;2.066;2022-08-25T06:46:49;100823.75;;;26.81;61.66
56042;BME280;48756;41.374;2.066;2022-08-25T06:49:15;100828.06;;;26.95;60.96
56042;BME280;48756;41.374;2.066;2022-08-25T06:51:41;100820.66;;;26.99;60.60
56042;BME280;48756;41.374;2.066;2022-08-25T06:54:07;100835.22;;;26.95;60.03
56042;BME280;48756;41.374;2.066;2022-08-25T06:56:35;100832.38;;;26.85;60.40
56042;BME280;48756;41.374;2.066;2022-08-25T06:59:02;100836.16;;;26.82;59.45
56042;BME280;48756;41.374;2.066;2022-08-25T07:01:28;100829.88;;;26.95;58.51
56042;BME280;48756;41.374;2.066;2022-08-25T07:03:57;100821.94;;;26.82;59.01
56042;BME280;48756;41.374;2.066;2022-08-25T07:06:25;100839.31;;;26.88;59.17
56042;BME280;48756;41.374;2.066;2022-08-25T07:08:51;100843.56;;;26.55;59.45
56042;BME280;48756;41.374;2.066;2022-08-25T07:11:17;100841.91;;;26.41;59.31
56042;BME280;48756;41.374;2.066;2022-08-25T07:13:46;100838.78;;;26.47;60.52
56042;BME280;48756;41.374;2.066;2022-08-25T07:16:12;100836.63;;;26.76;58.98
56042;BME280;48756;41.374;2.066;2022-08-25T07:18:43;100833.41;;;26.95;58.10
56042;BME280;48756;41.374;2.066;2022-08-25T07:21:10;100842.41;;;26.94;58.34
56042;BME280;48756;41.374;2.066;2022-08-25T07:23:37;100845.78;;;27.31;56.95
56042;BME280;48756;41.374;2.066;2022-08-25T07:26:11;100846.50;;;27.22;57.11
56042;BME280;48756;41.374;2.066;2022-08-25T07:28:36;100845.78;;;27.31;56.95
56042;BME280;48756;41.374;2.066;2022-08-25T07:31:03;100861.22;;;27.28;57.76
56042;BME280;48756;41.374;2.066;2022-08-25T07:33:29;100858.91;;;27.23;57.04
56042;BME280;48756;41.374;2.066;2022-08-25T07:35:55;100857.09;;;27.24;57.57
56042;BME280;48756;41.374;2.066;2022-08-25T07:38:22;100858.03;;;27.11;56.69
56042;BME280;48756;41.374;2.066;2022-08-25T07:40:48;100855.88;;;27.28;56.79
56042;BME280;48756;41.374;2.066;2022-08-25T07:43:20;100859.34;;;27.06;56.85
56042;BME280;48756;41.374;2.066;2022-08-25T07:45:45;100868.28;;;27.18;57.05
56042;BME280;48756;41.374;2.066;2022-08-25T07:48:11;100871.91;;;27.63;56.13
56042;BME280;48756;41.374;2.066;2022-08-25T07:50:40;100879.94;;;27.74;54.10
56042;BME280;48756;41.374;2.066;2022-08-25T07:53:08;100887.72;;;27.77;54.18
56042;BME280;48756;41.374;2.066;2022-08-25T07:55:34;100895.75;;;27.77;53.40
56042;BME280;48756;41.374;2.066;2022-08-25T07:58:03;100889.44;;;28.12;53.41
56042;BME280;48756;41.374;2.066;2022-08-25T08:00:30;100892.34;;;28.31;51.91
56042;BME280;48756;41.374;2.066;2022-08-25T08:02:59;100878.97;;;28.09;52.75
56042;BME280;48756;41.374;2.066;2022-08-25T08:05:28;100885.91;;;27.89;52.89
56042;BME280;48756;41.374;2.066;2022-08-25T08:07:54;100880.78;;;27.97;53.21
56042;BME280;48756;41.374;2.066;2022-08-25T08:10:21;100884.31;;;28.31;52.01
56042;BME280;48756;41.374;2.066;2022-08-25T08:12:47;100891.38;;;27.98;52.66
56042;BME280;48756;41.374;2.066;2022-08-25T08:15:14;100892.91;;;28.46;51.75
56042;BME280;48756;41.374;2.066;2022-08-25T08:17:40;100890.31;;;28.66;51.91
56042;BME280;48756;41.374;2.066;2022-08-25T08:20:08;100883.50;;;28.62;51.21
56042;BME280;48756;41.374;2.066;2022-08-25T08:22:35;100883.28;;;28.98;51.22
56042;BME280;48756;41.374;2.066;2022-08-25T08:25:02;100882.28;;;28.99;50.67
56042;BME280;48756;41.374;2.066;2022-08-25T08:27:28;100879.69;;;29.08;50.12
56042;BME280;48756;41.374;2.066;2022-08-25T08:29:54;100882.09;;;29.11;50.28
56042;BME280;48756;41.374;2.066;2022-08-25T08:32:19;100883.63;;;29.46;49.20
56042;BME280;48756;41.374;2.066;2022-08-25T08:34:45;100882.88;;;29.65;48.13
56042;BME280;48756;41.374;2.066;2022-08-25T08:37:13;100884.09;;;29.51;48.27
56042;BME280;48756;41.374;2.066;2022-08-25T08:39:39;100894.22;;;29.68;47.64
56042;BME280;48756;41.374;2.066;2022-08-25T08:45:31;100901.50;;;30.67;44.52
56042;BME280;48756;41.374;2.066;2022-08-25T08:53:49;100899.41;;;31.29;44.61
56042;BME280;48756;41.374;2.066;2022-08-25T08:56:29;100902.22;;;30.98;44.42
56042;BME280;48756;41.374;2.066;2022-08-25T08:59:20;100915.84;;;31.06;45.28
56042;BME280;48756;41.374;2.066;2022-08-25T09:01:50;100917.81;;;31.04;44.22
56042;BME280;48756;41.374;2.066;2022-08-25T09:07:03;100919.22;;;31.37;43.86
56042;BME280;48756;41.374;2.066;2022-08-25T09:09:33;100929.16;;;31.27;44.19
56042;BME280;48756;41.374;2.066;2022-08-25T09:29:18;100942.41;;;31.67;51.46
56042;BME280;48756;41.374;2.066;2022-08-25T09:31:46;100941.00;;;32.10;48.79
56042;BME280;48756;41.374;2.066;2022-08-25T09:34:20;100925.84;;;31.72;50.36
56042;BME280;48756;41.374;2.066;2022-08-25T09:36:47;100915.72;;;31.93;49.95
56042;BME280;48756;41.374;2.066;2022-08-25T09:39:17;100921.25;;;31.82;51.76
56042;BME280;48756;41.374;2.066;2022-08-25T09:41:47;100910.47;;;32.19;49.41
56042;BME280;48756;41.374;2.066;2022-08-25T09:44:37;100915.88;;;32.10;50.64
56042;BME280;48756;41.374;2.066;2022-08-25T09:47:18;100919.09;;;31.95;48.18
56042;BME280;48756;41.374;2.066;2022-08-25T09:49:58;100922.88;;;32.03;47.97
56042;BME280;48756;41.374;2.066;2022-08-25T09:52:37;100930.19;;;32.20;49.21
56042;BME280;48756;41.374;2.066;2022-08-25T09:57:50;100939.06;;;32.57;46.82
56042;BME280;48756;41.374;2.066;2022-08-25T10:03:22;100939.88;;;32.68;48.55
56042;BME280;48756;41.374;2.066;2022-08-25T10:08:37;100932.09;;;32.65;48.18
56042;BME280;48756;41.374;2.066;2022-08-25T10:11:08;100924.59;;;32.41;47.71
56042;BME280;48756;41.374;2.066;2022-08-25T10:13:48;100931.44;;;31.88;50.00
56042;BME280;48756;41.374;2.066;2022-08-25T10:16:27;100924.91;;;32.28;50.75
56042;BME280;48756;41.374;2.066;2022-08-25T10:19:01;100921.00;;;32.68;47.15
56042;BME280;48756;41.374;2.066;2022-08-25T10:21:27;100921.44;;;32.08;50.87
56042;BME280;48756;41.374;2.066;2022-08-25T10:23:53;100918.75;;;32.63;51.97
56042;BME280;48756;41.374;2.066;2022-08-25T10:31:55;100911.63;;;33.07;52.70
56042;BME280;48756;41.374;2.066;2022-08-25T10:45:44;100890.63;;;33.01;52.01
56042;BME280;48756;41.374;2.066;2022-08-25T10:53:45;100864.75;;;32.27;53.92
56042;BME280;48756;41.374;2.066;2022-08-25T10:56:19;100855.78;;;32.90;51.18
56042;BME280;48756;41.374;2.066;2022-08-25T10:58:53;100871.63;;;32.75;51.96
56042;BME280;48756;41.374;2.066;2022-08-25T11:04:22;100855.84;;;32.45;51.21
56042;BME280;48756;41.374;2.066;2022-08-25T11:07:03;100853.47;;;32.59;51.15
56042;BME280;48756;41.374;2.066;2022-08-25T11:09:40;100860.41;;;33.41;48.66
56042;BME280;48756;41.374;2.066;2022-08-25T11:12:14;100853.44;;;33.13;50.12
56042;BME280;48756;41.374;2.066;2022-08-25T11:14:52;100851.38;;;33.07;52.06
56042;BME280;48756;41.374;2.066;2022-08-25T11:17:26;100855.00;;;33.24;51.20
56042;BME280;48756;41.374;2.066;2022-08-25T11:20:02;100853.66;;;33.45;49.58
56042;BME280;48756;41.374;2.066;2022-08-25T11:22:37;100842.06;;;32.83;52.48
56042;BME280;48756;41.374;2.066;2022-08-25T11:25:44;100824.38;;;33.07;51.29
56042;BME280;48756;41.374;2.066;2022-08-25T11:30:36;100823.41;;;33.16;51.15
56042;BME280;48756;41.374;2.066;2022-08-25T11:33:03;100817.53;;;32.95;52.00
56042;BME280;48756;41.374;2.066;2022-08-25T11:35:38;100818.13;;;33.06;53.14
56042;BME280;48756;41.374;2.066;2022-08-25T11:43:31;100808.13;;;32.63;53.22
56042;BME280;48756;41.374;2.066;2022-08-25T11:51:44;100818.59;;;33.28;46.09
56042;BME280;48756;41.374;2.066;2022-08-25T11:54:22;100821.72;;;33.41;46.30
56042;BME280;48756;41.374;2.066;2022-08-25T11:56:53;100816.44;;;33.65;46.44
56042;BME280;48756;41.374;2.066;2022-08-25T12:02:32;100806.97;;;33.53;47.86
56042;BME280;48756;41.374;2.066;2022-08-25T12:04:59;100810.03;;;34.00;46.17
56042;BME280;48756;41.374;2.066;2022-08-25T12:07:28;100817.66;;;33.37;47.09
56042;BME280;48756;41.374;2.066;2022-08-25T12:18:12;100827.34;;;33.04;49.87
56042;BME280;48756;41.374;2.066;2022-08-25T12:23:31;100817.59;;;34.80;45.79
56042;BME280;48756;41.374;2.066;2022-08-25T12:26:02;100822.53;;;34.68;46.58
56042;BME280;48756;41.374;2.066;2022-08-25T12:28:50;100825.31;;;34.18;48.45
56042;BME280;48756;41.374;2.066;2022-08-25T12:31:50;100832.59;;;34.25;47.67
56042;BME280;48756;41.374;2.066;2022-08-25T12:37:13;100833.09;;;34.21;49.46
56042;BME280;48756;41.374;2.066;2022-08-25T12:40:04;100825.72;;;33.89;50.67
56042;BME280;48756;41.374;2.066;2022-08-25T12:42:38;100833.09;;;33.78;50.73
56042;BME280;48756;41.374;2.066;2022-08-25T12:47:46;100838.38;;;32.84;53.75
56042;BME280;48756;41.374;2.066;2022-08-25T12:50:29;100829.31;;;32.58;55.77
56042;BME280;48756;41.374;2.066;2022-08-25T12:53:09;100831.78;;;32.51;57.18
56042;BME280;48756;41.374;2.066;2022-08-25T12:55:39;100833.47;;;32.70;56.71
56042;BME280;48756;41.374;2.066;2022-08-25T12:58:06;100825.31;;;32.80;55.83
56042;BME280;48756;41.374;2.066;2022-08-25T13:00:36;100832.31;;;33.08;54.33
56042;BME280;48756;41.374;2.066;2022-08-25T13:06:03;100831.31;;;33.95;49.50
56042;BME280;48756;41.374;2.066;2022-08-25T13:08:53;100836.19;;;33.58;49.56
56042;BME280;48756;41.374;2.066;2022-08-25T13:14:07;100829.78;;;33.07;52.98
56042;BME280;48756;41.374;2.066;2022-08-25T13:16:39;100827.47;;;32.94;53.52
56042;BME280;48756;41.374;2.066;2022-08-25T13:19:05;100821.59;;;33.25;50.62
56042;BME280;48756;41.374;2.066;2022-08-25T13:21:40;100818.09;;;33.92;50.41
56042;BME280;48756;41.374;2.066;2022-08-25T13:24:13;100822.28;;;33.78;50.48
56042;BME280;48756;41.374;2.066;2022-08-25T13:26:41;100822.47;;;33.85;50.75
56042;BME280;48756;41.374;2.066;2022-08-25T13:29:14;100825.88;;;33.53;52.09
56042;BME280;48756;41.374;2.066;2022-08-25T13:34:20;100825.44;;;33.14;54.11
56042;BME280;48756;41.374;2.066;2022-08-25T13:36:47;100828.91;;;33.50;53.87
56042;BME280;48756;41.374;2.066;2022-08-25T13:39:33;100820.44;;;33.01;55.46
56042;BME280;48756;41.374;2.066;2022-08-25T13:42:00;100816.72;;;33.02;55.84
56042;BME280;48756;41.374;2.066;2022-08-25T13:44:30;100808.88;;;32.73;56.71
56042;BME280;48756;41.374;2.066;2022-08-25T13:47:32;100807.16;;;33.60;54.97
56042;BME280;48756;41.374;2.066;2022-08-25T13:52:52;100795.56;;;33.75;53.98
56042;BME280;48756;41.374;2.066;2022-08-25T13:55:28;100789.34;;;33.83;53.54
56042;BME280;48756;41.374;2.066;2022-08-25T13:57:57;100784.31;;;33.88;54.31
56042;BME280;48756;41.374;2.066;2022-08-25T14:00:33;100789.69;;;33.46;55.42
56042;BME280;48756;41.374;2.066;2022-08-25T14:03:02;100790.41;;;33.90;55.09
56042;BME280;48756;41.374;2.066;2022-08-25T14:05:41;100780.91;;;34.69;52.54
56042;BME280;48756;41.374;2.066;2022-08-25T14:08:28;100768.53;;;33.75;53.74
56042;BME280;48756;41.374;2.066;2022-08-25T14:11:08;100756.88;;;34.58;50.58
56042;BME280;48756;41.374;2.066;2022-08-25T14:13:36;100755.22;;;33.82;51.97
56042;BME280;48756;41.374;2.066;2022-08-25T14:18:46;100747.88;;;34.17;51.74
56042;BME280;48756;41.374;2.066;2022-08-25T14:21:13;100743.81;;;33.62;52.68
56042;BME280;48756;41.374;2.066;2022-08-25T14:23:39;100739.06;;;33.98;52.53
56042;BME280;48756;41.374;2.066;2022-08-25T14:26:05;100725.59;;;34.23;49.03
56042;BME280;48756;41.374;2.066;2022-08-25T14:28:30;100728.75;;;34.02;49.75
56042;BME280;48756;41.374;2.066;2022-08-25T14:31:08;100727.41;;;33.98;50.93
56042;BME280;48756;41.374;2.066;2022-08-25T14:34:09;100728.31;;;34.39;49.77
56042;BME280;48756;41.374;2.066;2022-08-25T14:36:36;100726.06;;;34.83;49.65
56042;BME280;48756;41.374;2.066;2022-08-25T14:39:03;100730.00;;;34.89;48.06
56042;BME280;48756;41.374;2.066;2022-08-25T14:41:32;100717.81;;;33.69;51.15
56042;BME280;48756;41.374;2.066;2022-08-25T14:44:02;100712.19;;;33.46;51.94
56042;BME280;48756;41.374;2.066;2022-08-25T14:46:33;100713.44;;;33.68;52.30
56042;BME280;48756;41.374;2.066;2022-08-25T14:49:05;100710.38;;;34.22;50.38
56042;BME280;48756;41.374;2.066;2022-08-25T14:51:32;100722.03;;;33.64;49.75
56042;BME280;48756;41.374;2.066;2022-08-25T14:54:02;100720.81;;;34.17;50.94